createdAt,value
2019-05-18T00:02:20.077Z,12.48
2019-05-18T00:04:49.276Z,12.53
2019-05-18T00:07:18.562Z,12.48
2019-05-18T00:09:47.711Z,12.38
2019-05-18T00:12:16.997Z,12.30
2019-05-18T00:14:46.202Z,12.34
2019-05-18T00:17:25.029Z,12.40
2019-05-18T00:19:46.348Z,12.46
2019-05-18T00:22:15.740Z,12.43
2019-05-18T00:24:45.129Z,12.38
2019-05-18T00:27:14.272Z,12.35
2019-05-18T00:29:43.431Z,12.40
2019-05-18T00:32:12.619Z,12.35
2019-05-18T00:34:41.906Z,12.26
2019-05-18T00:37:11.182Z,12.25
2019-05-18T00:39:40.533Z,12.21
2019-05-18T00:42:09.788Z,12.25
2019-05-18T00:44:38.929Z,12.25
2019-05-18T00:47:08.130Z,12.23
2019-05-18T00:49:37.303Z,12.21
2019-05-18T00:52:06.470Z,12.23
2019-05-18T00:54:35.900Z,12.23
2019-05-18T00:57:05.069Z,12.19
2019-05-18T00:59:34.215Z,12.15
2019-05-18T01:02:03.558Z,12.17
2019-05-18T01:04:32.761Z,12.14
2019-05-18T01:07:01.978Z,12.16
2019-05-18T01:09:31.188Z,12.29
2019-05-18T01:12:00.357Z,12.27
2019-05-18T01:14:29.579Z,12.26
2019-05-18T01:16:58.754Z,12.17
2019-05-18T01:19:27.980Z,12.15
2019-05-18T01:21:57.121Z,12.22
2019-05-18T01:24:26.271Z,12.14
2019-05-18T01:26:55.406Z,12.15
2019-05-18T01:29:24.578Z,12.20
2019-05-18T01:31:53.716Z,12.17
2019-05-18T01:34:23.002Z,12.16
2019-05-18T01:36:52.228Z,12.06
2019-05-18T01:39:21.377Z,12.13
2019-05-18T01:41:50.580Z,12.09
2019-05-18T01:44:19.697Z,12.15
2019-05-18T01:46:48.932Z,12.18
2019-05-18T01:49:18.076Z,12.14
2019-05-18T01:51:47.294Z,12.12
2019-05-18T01:54:16.540Z,12.18
2019-05-18T01:56:45.820Z,12.23
2019-05-18T01:59:14.968Z,12.19
2019-05-18T02:01:44.123Z,12.13
2019-05-18T02:04:13.307Z,12.12
2019-05-18T02:06:42.536Z,12.11
2019-05-18T02:09:11.724Z,12.14
2019-05-18T02:11:40.914Z,12.28
2019-05-18T02:14:10.091Z,12.30
2019-05-18T02:16:39.258Z,12.34
2019-05-18T02:19:08.403Z,12.37
2019-05-18T02:21:37.576Z,12.37
2019-05-18T02:24:08.017Z,12.38
2019-05-18T02:26:37.283Z,12.32
2019-05-18T02:29:06.450Z,12.20
2019-05-18T02:31:35.670Z,12.07
2019-05-18T02:34:04.859Z,12.03
2019-05-18T02:36:34.229Z,12.01
2019-05-18T02:39:05.232Z,12.00
2019-05-18T02:41:34.520Z,11.97
2019-05-18T02:44:03.765Z,11.85
2019-05-18T02:46:32.927Z,11.76
2019-05-18T02:49:02.132Z,11.75
2019-05-18T02:51:31.261Z,11.77
2019-05-18T02:54:00.741Z,11.71
2019-05-18T02:56:29.844Z,11.72
2019-05-18T02:58:58.963Z,11.67
2019-05-18T03:01:28.240Z,11.71
2019-05-18T03:03:57.631Z,11.73
2019-05-18T03:06:26.853Z,11.72
2019-05-18T03:08:56.046Z,11.75
2019-05-18T03:11:25.324Z,11.74
2019-05-18T03:13:54.808Z,11.79
2019-05-18T03:16:23.962Z,11.79
2019-05-18T03:19:07.315Z,11.74
2019-05-18T03:21:24.101Z,11.66
2019-05-18T03:23:53.373Z,11.53
2019-05-18T03:26:22.590Z,11.56
2019-05-18T03:28:52.288Z,11.61
2019-05-18T03:31:21.718Z,11.64
2019-05-18T03:33:50.953Z,11.64
2019-05-18T03:36:20.098Z,11.62
2019-05-18T03:38:49.326Z,11.53
2019-05-18T03:41:18.630Z,11.45
2019-05-18T03:43:47.837Z,11.41
2019-05-18T03:46:17.057Z,11.48
2019-05-18T03:48:46.552Z,11.59
2019-05-18T03:51:15.718Z,11.70
2019-05-18T03:53:44.917Z,11.69
2019-05-18T03:56:14.191Z,11.75
2019-05-18T03:58:43.408Z,11.83
2019-05-18T04:01:12.509Z,11.77
2019-05-18T04:03:41.805Z,11.75
2019-05-18T04:06:10.980Z,11.81
2019-05-18T04:08:40.279Z,11.93
2019-05-18T04:11:09.527Z,11.98
2019-05-18T04:13:38.687Z,11.96
2019-05-18T04:16:07.832Z,12.01
2019-05-18T04:18:37.103Z,12.06
2019-05-18T04:21:08.579Z,12.08
2019-05-18T04:23:37.843Z,12.04
2019-05-18T04:26:07.192Z,11.88
2019-05-18T04:28:36.311Z,11.89
2019-05-18T04:31:05.558Z,11.91
2019-05-18T04:33:34.709Z,11.93
2019-05-18T04:36:03.942Z,11.92
2019-05-18T04:38:33.072Z,11.81
2019-05-18T04:41:02.328Z,11.91
2019-05-18T04:43:31.474Z,11.96
2019-05-18T04:46:02.470Z,12.06
2019-05-18T04:48:31.570Z,12.08
2019-05-18T04:51:00.733Z,12.10
2019-05-18T04:53:29.900Z,12.12
2019-05-18T04:55:59.448Z,11.95
2019-05-18T04:58:28.593Z,11.90
2019-05-18T05:00:57.932Z,11.96
2019-05-18T05:03:27.135Z,12.03
2019-05-18T05:05:56.276Z,12.10
2019-05-18T05:08:25.470Z,12.22
2019-05-18T05:10:54.657Z,12.26
2019-05-18T05:13:24.087Z,12.36
2019-05-18T05:15:53.239Z,12.43
2019-05-18T05:18:22.390Z,12.46
2019-05-18T05:20:51.545Z,12.51
2019-05-18T05:23:20.715Z,12.59
2019-05-18T05:25:49.964Z,12.71
2019-05-18T05:28:19.266Z,12.85
2019-05-18T05:30:51.280Z,12.80
2019-05-18T05:33:20.428Z,12.78
2019-05-18T05:35:49.789Z,12.89
2019-05-18T05:38:19.069Z,13.08
2019-05-18T05:40:48.371Z,13.19
2019-05-18T05:43:17.536Z,13.39
2019-05-18T05:45:46.963Z,13.45
2019-05-18T05:48:16.029Z,13.57
2019-05-18T05:50:45.397Z,13.71
2019-05-18T05:53:14.580Z,13.88
2019-05-18T05:55:43.756Z,14.22
2019-05-18T05:58:12.994Z,14.44
2019-05-18T06:00:42.279Z,14.61
2019-05-18T06:03:11.664Z,14.43
2019-05-18T06:05:40.827Z,14.32
2019-05-18T06:08:10.245Z,14.47
2019-05-18T06:10:39.415Z,14.60
2019-05-18T06:13:08.548Z,14.51
2019-05-18T06:15:37.877Z,14.42
2019-05-18T06:18:07.106Z,14.27
2019-05-18T06:20:50.470Z,14.22
2019-05-18T06:23:07.149Z,14.37
2019-05-18T06:25:36.438Z,14.45
2019-05-18T06:28:05.685Z,14.47
2019-05-18T06:30:35.069Z,14.50
2019-05-18T06:33:04.502Z,14.36
2019-05-18T06:35:36.169Z,14.44
2019-05-18T06:38:11.281Z,14.40
2019-05-18T06:40:41.693Z,14.40
2019-05-18T06:43:10.893Z,14.44
2019-05-18T06:45:40.448Z,14.44
2019-05-18T06:48:09.632Z,14.80
2019-05-18T06:50:38.787Z,14.80
2019-05-18T06:53:08.000Z,14.73
2019-05-18T06:55:37.439Z,14.77
2019-05-18T06:58:07.055Z,14.77
2019-05-18T07:00:36.291Z,14.77
2019-05-18T07:03:05.530Z,14.81
2019-05-18T07:05:35.069Z,15.03
2019-05-18T07:08:04.551Z,14.98
2019-05-18T07:10:33.915Z,15.02
2019-05-18T07:13:03.255Z,14.88
2019-05-18T07:15:32.405Z,14.99
2019-05-18T07:18:01.713Z,15.25
2019-05-18T07:20:30.915Z,15.44
2019-05-18T07:23:00.522Z,15.49
2019-05-18T07:25:29.876Z,15.69
2019-05-18T07:27:59.241Z,15.49
2019-05-18T07:30:28.422Z,16.02
2019-05-18T07:32:57.856Z,16.50
2019-05-18T07:35:27.093Z,16.53
2019-05-18T07:37:56.662Z,16.47
2019-05-18T07:40:25.846Z,16.73
2019-05-18T07:42:55.040Z,16.63
2019-05-18T07:45:24.407Z,16.74
2019-05-18T07:47:53.551Z,17.18
2019-05-18T07:50:22.751Z,16.91
2019-05-18T07:52:52.038Z,17.14
2019-05-18T07:55:21.260Z,17.19
2019-05-18T07:57:50.496Z,17.40
2019-05-18T08:00:19.748Z,18.29
2019-05-18T08:02:49.123Z,19.23
2019-05-18T08:05:18.317Z,19.53
2019-05-18T08:07:47.660Z,20.35
2019-05-18T08:10:20.257Z,20.33
2019-05-18T08:12:49.465Z,20.01
2019-05-18T08:15:18.896Z,19.93
2019-05-18T08:17:48.102Z,20.38
2019-05-18T08:20:17.231Z,19.79
2019-05-18T08:22:46.406Z,20.13
2019-05-18T08:25:15.596Z,20.40
2019-05-18T08:27:44.827Z,20.32
2019-05-18T08:30:14.376Z,20.21
2019-05-18T08:32:43.537Z,20.03
2019-05-18T08:35:13.821Z,20.68
2019-05-18T08:37:42.997Z,20.35
2019-05-18T08:40:12.416Z,20.59
2019-05-18T08:42:41.568Z,20.34
2019-05-18T08:45:11.254Z,20.43
2019-05-18T08:47:43.503Z,20.42
2019-05-18T08:50:13.337Z,20.20
2019-05-18T08:52:42.563Z,20.37
2019-05-18T08:55:12.068Z,20.23
2019-05-18T08:57:41.285Z,21.44
2019-05-18T09:00:11.207Z,21.37
2019-05-18T09:02:40.335Z,21.43
2019-05-18T09:05:09.877Z,22.24
2019-05-18T09:07:38.959Z,22.56
2019-05-18T09:10:08.429Z,22.45
2019-05-18T09:12:37.610Z,22.77
2019-05-18T09:15:07.184Z,21.44
2019-05-18T09:17:36.340Z,21.49
2019-05-18T09:20:05.827Z,21.47
2019-05-18T09:22:34.940Z,22.38
2019-05-18T09:25:04.348Z,22.08
2019-05-18T09:27:33.554Z,22.15
2019-05-18T09:30:02.945Z,21.74
2019-05-18T09:32:32.274Z,22.12
2019-05-18T09:35:01.520Z,23.07
2019-05-18T09:37:30.644Z,22.84
2019-05-18T09:39:59.908Z,23.16
2019-05-18T09:42:29.020Z,23.05
2019-05-18T09:44:58.212Z,24.06
2019-05-18T09:47:27.386Z,24.53
2019-05-18T09:49:57.069Z,24.02
2019-05-18T09:52:43.485Z,24.10
2019-05-18T09:54:57.238Z,23.40
2019-05-18T09:57:26.434Z,22.17
2019-05-18T09:59:55.579Z,22.40
2019-05-18T10:02:24.812Z,22.28
2019-05-18T10:04:54.013Z,22.29
2019-05-18T10:07:23.175Z,22.55
2019-05-18T10:09:52.275Z,23.28
2019-05-18T10:12:21.408Z,23.57
2019-05-18T10:14:50.577Z,23.71
2019-05-18T10:17:19.797Z,23.67
2019-05-18T10:19:48.975Z,24.50
2019-05-18T10:22:18.309Z,25.05
2019-05-18T10:24:47.511Z,24.77
2019-05-18T10:27:16.682Z,23.23
2019-05-18T10:29:46.757Z,22.93
2019-05-18T10:32:16.118Z,23.55
2019-05-18T10:34:45.295Z,22.80
2019-05-18T10:37:14.496Z,24.06
2019-05-18T10:39:43.759Z,24.80
2019-05-18T10:42:12.951Z,25.38
2019-05-18T10:44:42.090Z,25.86
2019-05-18T10:47:11.294Z,25.62
2019-05-18T10:49:40.468Z,25.06
2019-05-18T10:52:09.614Z,24.24
2019-05-18T10:54:39.191Z,24.43
2019-05-18T10:57:08.335Z,24.52
2019-05-18T10:59:37.541Z,25.17
2019-05-18T11:02:06.828Z,25.38
2019-05-18T11:04:35.999Z,25.26
2019-05-18T11:07:05.141Z,25.30
2019-05-18T11:09:34.311Z,25.26
2019-05-18T11:12:03.492Z,25.50
2019-05-18T11:14:32.732Z,25.66
2019-05-18T11:17:02.244Z,25.65
2019-05-18T11:19:31.687Z,25.65
2019-05-18T11:22:00.873Z,25.39
2019-05-18T11:24:30.069Z,25.07
2019-05-18T11:26:59.272Z,25.12
2019-05-18T11:29:28.447Z,25.57
2019-05-18T11:31:57.584Z,25.07
2019-05-18T11:34:27.061Z,25.07
2019-05-18T11:36:56.281Z,25.18
2019-05-18T11:39:25.509Z,25.46
2019-05-18T11:41:54.726Z,25.85
2019-05-18T11:44:24.260Z,25.70
2019-05-18T11:46:53.733Z,25.71
2019-05-18T11:49:22.847Z,25.44
2019-05-18T11:51:51.977Z,25.71
2019-05-18T11:54:21.347Z,25.38
2019-05-18T11:56:50.536Z,25.84
2019-05-18T11:59:19.952Z,25.79
2019-05-18T12:01:49.088Z,25.68
2019-05-18T12:04:18.458Z,25.82
2019-05-18T12:06:48.209Z,25.86
2019-05-18T12:09:17.308Z,25.73
2019-05-18T12:11:46.723Z,25.79
2019-05-18T12:14:15.875Z,25.28
2019-05-18T12:16:45.258Z,25.76
2019-05-18T12:19:14.651Z,25.69
2019-05-18T12:21:43.901Z,26.00
2019-05-18T12:24:15.809Z,26.32
2019-05-18T12:26:44.038Z,26.38
2019-05-18T12:29:13.150Z,26.66
2019-05-18T12:31:42.639Z,26.05
2019-05-18T12:34:12.036Z,25.51
2019-05-18T12:36:41.274Z,25.73
2019-05-18T12:39:10.570Z,25.26
2019-05-18T12:41:39.824Z,24.89
2019-05-18T12:44:09.117Z,24.99
2019-05-18T12:46:38.299Z,25.94
2019-05-18T12:49:07.435Z,26.28
2019-05-18T12:51:36.727Z,26.22
2019-05-18T12:54:05.969Z,26.36
2019-05-18T12:56:35.219Z,26.35
2019-05-18T12:59:04.558Z,26.31
2019-05-18T13:01:33.797Z,25.87
2019-05-18T13:04:03.006Z,25.33
2019-05-18T13:06:32.342Z,24.59
2019-05-18T13:09:01.555Z,24.84
2019-05-18T13:11:30.919Z,24.92
2019-05-18T13:14:00.137Z,25.04
2019-05-18T13:16:29.336Z,24.76
2019-05-18T13:18:58.684Z,24.14
2019-05-18T13:21:27.928Z,24.74
2019-05-18T13:23:57.097Z,25.15
2019-05-18T13:26:26.306Z,24.88
2019-05-18T13:28:55.489Z,25.17
2019-05-18T13:31:24.983Z,25.03
2019-05-18T13:33:54.210Z,25.28
2019-05-18T13:36:23.293Z,24.72
2019-05-18T13:38:52.500Z,24.64
2019-05-18T13:41:21.725Z,24.86
2019-05-18T13:43:50.886Z,25.04
2019-05-18T13:46:20.196Z,24.76
2019-05-18T13:48:49.391Z,25.01
2019-05-18T13:51:18.549Z,24.56
2019-05-18T13:53:47.722Z,24.81
2019-05-18T13:56:16.873Z,25.23
2019-05-18T13:58:46.085Z,25.70
2019-05-18T14:01:15.408Z,26.31
2019-05-18T14:03:44.528Z,26.37
2019-05-18T14:06:13.670Z,25.80
2019-05-18T14:08:42.834Z,25.81
2019-05-18T14:11:12.101Z,25.61
2019-05-18T14:13:41.285Z,25.03
2019-05-18T14:16:10.548Z,24.77
2019-05-18T14:18:39.818Z,24.91
2019-05-18T14:21:09.017Z,24.16
2019-05-18T14:23:38.533Z,23.34
2019-05-18T14:26:07.800Z,22.76
2019-05-18T14:28:37.206Z,22.41
2019-05-18T14:31:06.537Z,22.06
2019-05-18T14:33:35.888Z,21.84
2019-05-18T14:36:05.066Z,21.77
2019-05-18T14:38:34.255Z,21.53
2019-05-18T14:41:03.417Z,21.05
2019-05-18T14:43:32.998Z,20.80
2019-05-18T14:46:02.317Z,20.78
2019-05-18T14:48:31.407Z,20.75
2019-05-18T14:51:00.730Z,20.89
2019-05-18T14:53:30.187Z,20.80
2019-05-18T14:56:00.030Z,20.81
2019-05-18T14:58:29.305Z,20.95
2019-05-18T15:00:58.499Z,21.08
2019-05-18T15:03:28.450Z,21.10
2019-05-18T15:05:57.722Z,20.89
2019-05-18T15:08:26.881Z,20.75
2019-05-18T15:10:56.169Z,20.85
2019-05-18T15:13:25.442Z,21.22
2019-05-18T15:15:54.963Z,20.03
2019-05-18T15:18:24.381Z,19.69
2019-05-18T15:20:53.607Z,19.40
2019-05-18T15:23:22.768Z,19.44
2019-05-18T15:25:52.184Z,19.26
2019-05-18T15:28:21.343Z,19.15
2019-05-18T15:30:50.660Z,18.76
2019-05-18T15:33:19.996Z,18.64
2019-05-18T15:35:49.309Z,18.22
2019-05-18T15:38:18.452Z,17.73
2019-05-18T15:40:47.637Z,17.08
2019-05-18T15:43:16.977Z,16.94
2019-05-18T15:45:46.211Z,16.64
2019-05-18T15:48:15.671Z,16.44
2019-05-18T15:50:44.939Z,16.23
2019-05-18T15:53:14.123Z,16.24
2019-05-18T15:55:45.760Z,16.15
2019-05-18T15:58:15.160Z,15.89
2019-05-18T16:00:44.381Z,15.86
2019-05-18T16:03:13.609Z,15.83
2019-05-18T16:05:42.996Z,15.67
2019-05-18T16:08:12.337Z,15.67
2019-05-18T16:10:41.603Z,15.67
2019-05-18T16:13:12.926Z,15.80
2019-05-18T16:15:42.081Z,15.84
2019-05-18T16:18:11.374Z,15.86
2019-05-18T16:20:40.569Z,15.71
2019-05-18T16:23:09.842Z,15.64
2019-05-18T16:25:39.475Z,15.71
2019-05-18T16:28:08.659Z,15.77
2019-05-18T16:30:37.882Z,15.94
2019-05-18T16:33:07.071Z,15.78
2019-05-18T16:35:36.570Z,15.76
2019-05-18T16:38:06.063Z,15.84
2019-05-18T16:40:35.292Z,15.90
2019-05-18T16:43:05.022Z,15.79
2019-05-18T16:45:34.255Z,15.60
2019-05-18T16:48:03.444Z,15.51
2019-05-18T16:50:32.826Z,15.53
2019-05-18T16:53:02.304Z,15.58
2019-05-18T16:55:31.850Z,15.61
2019-05-18T16:58:01.249Z,15.58
2019-05-18T17:00:30.458Z,15.56
2019-05-18T17:02:59.798Z,15.63
2019-05-18T17:05:29.012Z,15.88
2019-05-18T17:07:58.233Z,15.81
2019-05-18T17:10:27.449Z,15.73
2019-05-18T17:12:56.733Z,15.73
2019-05-18T17:15:26.063Z,15.65
2019-05-18T17:17:55.237Z,15.51
2019-05-18T17:20:24.509Z,15.41
2019-05-18T17:22:53.909Z,15.45
2019-05-18T17:25:23.066Z,15.50
2019-05-18T17:27:52.383Z,15.44
2019-05-18T17:30:21.809Z,15.40
2019-05-18T17:32:51.111Z,15.38
2019-05-18T17:35:20.343Z,15.46
2019-05-18T17:37:49.556Z,15.54
2019-05-18T17:40:19.047Z,15.54
2019-05-18T17:42:48.401Z,15.54
2019-05-18T17:45:17.547Z,15.42
2019-05-18T17:47:46.683Z,15.35
2019-05-18T17:50:16.053Z,15.18
2019-05-18T17:52:45.192Z,15.16
2019-05-18T17:55:16.520Z,15.17
2019-05-18T17:57:46.087Z,15.19
2019-05-18T18:00:15.801Z,15.27
2019-05-18T18:02:48.035Z,15.05
2019-05-18T18:05:16.637Z,15.03
2019-05-18T18:07:45.812Z,15.08
2019-05-18T18:10:16.497Z,15.09
2019-05-18T18:12:45.711Z,15.03
2019-05-18T18:15:15.119Z,14.94
2019-05-18T18:17:44.318Z,14.97
2019-05-18T18:20:14.428Z,14.99
2019-05-18T18:22:43.582Z,14.91
2019-05-18T18:25:13.106Z,14.99
2019-05-18T18:27:42.274Z,15.06
2019-05-18T18:30:11.794Z,15.11
2019-05-18T18:32:41.032Z,15.00
2019-05-18T18:35:10.742Z,14.98
2019-05-18T18:37:39.964Z,14.96
2019-05-18T18:40:09.509Z,14.86
2019-05-18T18:42:39.261Z,14.84
2019-05-18T18:45:09.052Z,14.76
2019-05-18T18:47:38.229Z,14.78
2019-05-18T18:50:08.010Z,14.79
2019-05-18T18:52:37.152Z,14.86
2019-05-18T18:55:06.377Z,14.93
2019-05-18T18:57:41.197Z,14.93
2019-05-18T19:00:08.553Z,14.87
2019-05-18T19:02:37.872Z,14.84
2019-05-18T19:05:08.369Z,14.85
2019-05-18T19:07:37.626Z,14.73
2019-05-18T19:10:07.201Z,14.69
2019-05-18T19:12:36.448Z,14.69
2019-05-18T19:15:06.269Z,14.66
2019-05-18T19:17:35.611Z,14.66
2019-05-18T19:20:05.403Z,14.59
2019-05-18T19:22:34.986Z,14.59
2019-05-18T19:25:04.116Z,14.54
2019-05-18T19:27:33.499Z,14.48
2019-05-18T19:30:02.910Z,14.44
2019-05-18T19:32:32.112Z,14.36
2019-05-18T19:35:01.325Z,14.31
2019-05-18T19:37:30.456Z,14.35
2019-05-18T19:39:59.856Z,14.39
2019-05-18T19:42:29.137Z,14.35
2019-05-18T19:44:58.524Z,14.31
2019-05-18T19:47:27.653Z,14.39
2019-05-18T19:49:57.009Z,14.46
2019-05-18T19:52:26.293Z,14.46
2019-05-18T19:54:55.769Z,14.44
2019-05-18T19:57:25.061Z,14.36
2019-05-18T19:59:54.293Z,14.25
2019-05-18T20:02:23.488Z,14.22
2019-05-18T20:05:06.644Z,14.19
2019-05-18T20:07:23.826Z,14.21
2019-05-18T20:09:53.177Z,14.23
2019-05-18T20:12:22.494Z,14.30
2019-05-18T20:14:51.738Z,14.30
2019-05-18T20:17:20.929Z,14.30
2019-05-18T20:19:50.192Z,14.31
2019-05-18T20:22:19.387Z,14.21
2019-05-18T20:24:48.854Z,14.21
2019-05-18T20:27:18.077Z,14.18
2019-05-18T20:29:47.355Z,14.12
2019-05-18T20:32:16.589Z,14.07
2019-05-18T20:34:45.799Z,14.03
2019-05-18T20:37:15.065Z,13.95
2019-05-18T20:39:44.324Z,13.93
2019-05-18T20:42:13.565Z,13.93
2019-05-18T20:44:42.972Z,14.00
2019-05-18T20:47:12.158Z,14.06
2019-05-18T20:49:41.416Z,14.11
2019-05-18T20:52:10.581Z,14.10
2019-05-18T20:54:39.953Z,14.05
2019-05-18T20:57:09.198Z,14.05
2019-05-18T20:59:38.413Z,14.05
2019-05-18T21:02:07.679Z,14.01
2019-05-18T21:04:36.951Z,13.99
2019-05-18T21:07:06.174Z,13.97
2019-05-18T21:09:35.612Z,13.94
2019-05-18T21:12:04.802Z,13.90
2019-05-18T21:14:33.990Z,13.90
2019-05-18T21:17:03.245Z,14.01
2019-05-18T21:19:32.659Z,13.97
2019-05-18T21:22:01.806Z,13.97
2019-05-18T21:24:30.994Z,13.97
2019-05-18T21:27:00.236Z,13.94
2019-05-18T21:29:29.437Z,13.87
2019-05-18T21:31:58.673Z,13.71
2019-05-18T21:34:27.995Z,13.62
2019-05-18T21:36:57.204Z,13.54
2019-05-18T21:39:26.432Z,13.50
2019-05-18T21:41:55.627Z,13.52
2019-05-18T21:44:24.966Z,13.51
2019-05-18T21:46:54.385Z,13.57
2019-05-18T21:49:23.767Z,13.57
2019-05-18T21:51:52.973Z,13.58
2019-05-18T21:54:22.200Z,13.58
2019-05-18T21:56:51.403Z,13.57
2019-05-18T21:59:20.582Z,13.54
2019-05-18T22:01:49.776Z,13.49
2019-05-18T22:04:18.995Z,13.40
2019-05-18T22:06:48.384Z,13.41
2019-05-18T22:09:18.243Z,13.43
2019-05-18T22:11:47.419Z,13.39
2019-05-18T22:14:16.641Z,13.37
2019-05-18T22:16:45.973Z,13.37
2019-05-18T22:19:15.153Z,13.45
2019-05-18T22:21:44.468Z,13.46
2019-05-18T22:24:13.869Z,13.45
2019-05-18T22:26:43.104Z,13.35
2019-05-18T22:29:12.337Z,13.27
2019-05-18T22:31:41.588Z,13.36
2019-05-18T22:34:10.808Z,13.40
2019-05-18T22:36:39.971Z,13.44
2019-05-18T22:39:09.199Z,13.40
2019-05-18T22:41:38.336Z,13.32
2019-05-18T22:44:07.513Z,13.26
2019-05-18T22:46:36.670Z,13.17
2019-05-18T22:49:05.993Z,13.07
2019-05-18T22:51:35.187Z,13.12
2019-05-18T22:54:04.482Z,13.14
2019-05-18T22:56:33.620Z,13.20
2019-05-18T22:59:02.822Z,13.16
2019-05-18T23:01:31.997Z,13.14
2019-05-18T23:04:01.186Z,13.10
2019-05-18T23:06:30.374Z,13.10
2019-05-18T23:08:59.956Z,13.10
2019-05-18T23:11:29.215Z,13.11
2019-05-18T23:13:58.407Z,13.09
2019-05-18T23:16:27.572Z,13.00
2019-05-18T23:18:57.482Z,12.85
2019-05-18T23:21:26.657Z,12.75
2019-05-18T23:23:55.819Z,12.67
2019-05-18T23:26:25.024Z,12.64
2019-05-18T23:28:54.188Z,12.57
2019-05-18T23:31:23.318Z,12.55
2019-05-18T23:33:52.509Z,12.55
2019-05-18T23:36:21.773Z,12.55
2019-05-18T23:38:50.996Z,12.49
2019-05-18T23:41:20.212Z,12.47
2019-05-18T23:43:49.388Z,12.47
2019-05-18T23:46:18.555Z,12.46
2019-05-18T23:48:47.943Z,12.44
2019-05-18T23:51:17.173Z,12.44
2019-05-18T23:53:46.292Z,12.47
2019-05-18T23:56:15.481Z,12.42
2019-05-18T23:58:44.586Z,12.40
